createdAt,value
2022-08-20T00:02:54.498Z,13.23
2022-08-20T00:07:57.588Z,14.70
2022-08-20T00:13:01.169Z,16.83
2022-08-20T00:18:05.584Z,19.25
2022-08-20T00:23:10.612Z,19.75
2022-08-20T00:28:14.458Z,19.88
2022-08-20T00:33:20.350Z,18.40
2022-08-20T00:38:24.212Z,15.63
2022-08-20T00:43:51.922Z,18.10
2022-08-20T00:48:56.258Z,17.52
2022-08-20T00:54:07.204Z,15.15
2022-08-20T00:59:15.133Z,16.07
2022-08-20T01:04:18.249Z,18.08
2022-08-20T01:09:50.131Z,15.65
2022-08-20T01:14:46.957Z,17.80
2022-08-20T01:19:55.697Z,16.05
2022-08-20T01:25:17.549Z,16.55
2022-08-20T01:35:24.336Z,15.02
2022-08-20T01:40:48.228Z,13.00
2022-08-20T01:45:52.992Z,13.68
2022-08-20T01:51:06.397Z,13.85
2022-08-20T01:56:14.354Z,13.60
2022-08-20T02:01:45.869Z,12.60
2022-08-20T02:06:57.946Z,12.25
2022-08-20T02:12:03.048Z,10.77
2022-08-20T02:17:07.267Z,11.35
2022-08-20T02:22:38.069Z,10.85
2022-08-20T02:27:43.271Z,10.97
2022-08-20T02:32:47.439Z,9.93
2022-08-20T02:37:51.296Z,8.23
2022-08-20T02:42:54.950Z,8.40
2022-08-20T02:47:59.142Z,7.38
2022-08-20T02:53:02.023Z,7.57
2022-08-20T02:58:04.841Z,7.70
2022-08-20T03:03:10.541Z,7.47
2022-08-20T03:08:14.907Z,7.85
2022-08-20T03:13:19.789Z,7.45
2022-08-20T03:18:25.526Z,8.23
2022-08-20T03:23:28.352Z,8.05
2022-08-20T03:28:31.210Z,9.52
2022-08-20T03:33:34.091Z,13.75
2022-08-20T03:38:37.075Z,19.27
2022-08-20T03:43:41.148Z,22.45
2022-08-20T03:48:43.817Z,23.15
2022-08-20T03:53:46.793Z,27.05
2022-08-20T03:58:49.660Z,26.30
2022-08-20T04:03:55.226Z,24.30
2022-08-20T04:08:58.150Z,25.20
2022-08-20T04:14:00.821Z,22.92
2022-08-20T04:19:05.206Z,24.13
2022-08-20T04:24:07.951Z,20.42
2022-08-20T04:29:32.422Z,19.38
2022-08-20T04:34:35.990Z,18.10
2022-08-20T04:39:38.674Z,18.65
2022-08-20T04:44:41.368Z,17.73
2022-08-20T04:49:45.338Z,17.13
2022-08-20T04:54:48.087Z,16.58
2022-08-20T04:59:56.559Z,16.73
2022-08-20T05:05:02.097Z,15.77
2022-08-20T05:10:06.571Z,16.25
2022-08-20T05:15:13.644Z,14.75
2022-08-20T05:20:19.266Z,15.50
2022-08-20T05:25:22.305Z,15.18
2022-08-20T05:30:25.013Z,13.32
2022-08-20T05:35:29.004Z,12.68
2022-08-20T05:40:32.416Z,13.30
2022-08-20T05:45:37.914Z,12.13
2022-08-20T05:50:43.205Z,12.63
2022-08-20T05:55:46.512Z,11.23
2022-08-20T06:00:51.901Z,11.73
2022-08-20T06:05:54.591Z,11.68
2022-08-20T06:10:57.389Z,11.20
2022-08-20T06:16:01.749Z,12.48
2022-08-20T06:21:09.654Z,11.10
2022-08-20T06:26:12.375Z,10.65
2022-08-20T06:31:15.320Z,9.73
2022-08-20T06:36:19.024Z,8.45
2022-08-20T06:41:22.055Z,9.80
2022-08-20T06:46:24.882Z,8.48
2022-08-20T06:51:27.791Z,8.07
2022-08-20T06:56:30.415Z,8.00
2022-08-20T07:01:33.114Z,6.80
2022-08-20T07:06:36.767Z,6.93
2022-08-20T07:11:39.380Z,6.65
2022-08-20T07:16:42.526Z,5.43
2022-08-20T07:21:45.121Z,5.53
2022-08-20T07:26:49.465Z,6.15
2022-08-20T07:32:10.863Z,5.78
2022-08-20T07:37:13.938Z,5.80
2022-08-20T07:42:17.207Z,4.80
2022-08-20T07:47:19.917Z,5.10
2022-08-20T07:52:22.892Z,4.63
2022-08-20T07:57:25.757Z,4.57
2022-08-20T08:02:28.786Z,5.30
2022-08-20T08:07:32.688Z,5.22
2022-08-20T08:12:43.385Z,5.25
2022-08-20T08:17:48.834Z,4.68
2022-08-20T08:22:52.726Z,4.15
2022-08-20T08:27:55.416Z,4.75
2022-08-20T08:33:16.804Z,5.13
2022-08-20T08:38:19.609Z,6.40
2022-08-20T08:43:31.652Z,5.47
2022-08-20T08:48:38.657Z,6.55
2022-08-20T08:53:56.986Z,7.05
2022-08-20T08:59:06.200Z,6.60
2022-08-20T09:04:09.710Z,6.13
2022-08-20T09:09:26.123Z,6.07
2022-08-20T09:14:28.787Z,6.80
2022-08-20T09:19:32.096Z,7.78
2022-08-20T09:24:34.754Z,7.07
2022-08-20T09:29:37.606Z,7.85
2022-08-20T09:34:43.706Z,9.02
2022-08-20T09:39:47.809Z,8.77
2022-08-20T09:44:51.084Z,11.35
2022-08-20T09:49:54.637Z,9.90
2022-08-20T09:55:01.792Z,11.57
2022-08-20T10:00:09.469Z,10.75
2022-08-20T10:05:14.989Z,10.55
2022-08-20T10:10:18.052Z,10.88
2022-08-20T10:15:20.890Z,10.35
2022-08-20T10:20:24.892Z,11.00
2022-08-20T10:25:28.920Z,11.85
2022-08-20T10:30:31.687Z,11.38
2022-08-20T10:35:34.313Z,11.80
2022-08-20T10:40:37.018Z,12.73
2022-08-20T10:45:40.379Z,11.65
2022-08-20T10:50:43.293Z,12.13
2022-08-20T10:55:46.488Z,12.43
2022-08-20T11:00:49.265Z,11.18
2022-08-20T11:05:51.981Z,11.82
2022-08-20T11:10:55.033Z,10.43
2022-08-20T11:15:57.918Z,9.85
2022-08-20T11:21:01.543Z,8.90
2022-08-20T11:26:04.270Z,8.40
2022-08-20T11:31:06.958Z,7.93
2022-08-20T11:36:09.869Z,8.32
2022-08-20T11:41:12.525Z,7.88
2022-08-20T11:46:15.493Z,6.47
2022-08-20T11:51:18.129Z,6.65
2022-08-20T11:56:21.823Z,6.45
2022-08-20T12:01:24.594Z,4.97
2022-08-20T12:06:27.297Z,4.55
2022-08-20T12:11:30.191Z,5.07
2022-08-20T12:16:32.870Z,5.25
2022-08-20T12:21:35.671Z,5.72
2022-08-20T12:26:38.491Z,3.83
2022-08-20T12:31:41.138Z,4.10
2022-08-20T12:36:43.736Z,4.18
2022-08-20T12:41:46.559Z,3.90
2022-08-20T12:46:49.226Z,5.03
2022-08-20T12:51:51.928Z,4.03
2022-08-20T12:56:54.839Z,3.80
2022-08-20T13:01:58.242Z,4.15
2022-08-20T13:07:16.776Z,3.90
2022-08-20T13:12:20.817Z,4.28
2022-08-20T13:17:38.101Z,4.45
2022-08-20T13:22:42.354Z,4.85
2022-08-20T13:27:45.105Z,4.00
2022-08-20T13:32:47.921Z,5.47
2022-08-20T13:37:51.161Z,5.30
2022-08-20T13:42:53.990Z,6.10
2022-08-20T13:47:56.901Z,6.38
2022-08-20T13:52:59.713Z,6.65
2022-08-20T13:58:06.794Z,7.13
2022-08-20T14:03:09.481Z,8.73
2022-08-20T14:08:20.865Z,9.48
2022-08-20T14:13:26.284Z,9.57
2022-08-20T14:18:29.042Z,11.05
2022-08-20T14:23:31.685Z,9.38
2022-08-20T14:28:39.634Z,11.48
2022-08-20T14:33:44.711Z,10.27
2022-08-20T14:38:47.516Z,10.95
2022-08-20T14:43:50.176Z,10.18
2022-08-20T14:48:53.511Z,8.98
2022-08-20T14:53:56.530Z,8.23
2022-08-20T14:58:59.381Z,7.85
2022-08-20T15:04:02.065Z,7.03
2022-08-20T15:09:04.667Z,5.90
2022-08-20T15:14:08.715Z,5.25
2022-08-20T15:19:11.637Z,4.88
2022-08-20T15:24:18.818Z,4.00
2022-08-20T15:29:22.978Z,4.18
2022-08-20T15:34:26.042Z,4.25
2022-08-20T15:39:28.681Z,3.90
2022-08-20T15:44:31.443Z,3.55
2022-08-20T15:49:34.335Z,3.15
2022-08-20T15:54:37.553Z,3.67
2022-08-20T15:59:55.493Z,3.25
2022-08-20T16:05:36.999Z,3.63
2022-08-20T16:10:58.690Z,3.63
2022-08-20T16:16:03.435Z,3.28
2022-08-20T16:21:10.720Z,2.90
2022-08-20T16:26:31.276Z,3.13
2022-08-20T16:32:04.369Z,2.97
2022-08-20T16:37:38.566Z,3.03
2022-08-20T16:42:45.826Z,3.03
2022-08-20T16:47:50.959Z,3.88
2022-08-20T16:52:53.727Z,3.10
2022-08-20T16:57:56.782Z,3.15
2022-08-20T17:03:31.441Z,3.45
2022-08-20T17:08:48.415Z,2.92
2022-08-20T17:14:04.509Z,3.17
2022-08-20T17:19:10.954Z,3.13
2022-08-20T17:24:33.954Z,3.90
2022-08-20T17:29:52.594Z,3.22
2022-08-20T17:34:58.166Z,3.00
2022-08-20T17:40:16.150Z,3.28
2022-08-20T17:45:25.108Z,2.63
2022-08-20T17:50:32.572Z,3.33
2022-08-20T17:55:36.744Z,3.05
2022-08-20T18:00:39.848Z,2.92
2022-08-20T18:05:44.122Z,3.35
2022-08-20T18:10:56.961Z,3.40
2022-08-20T18:16:01.755Z,3.60
2022-08-20T18:21:32.199Z,3.97
2022-08-20T18:26:41.160Z,3.70
2022-08-20T18:31:49.882Z,3.95
2022-08-20T18:37:00.909Z,4.22
2022-08-20T18:42:22.299Z,4.20
2022-08-20T18:47:33.640Z,4.38
2022-08-20T18:52:41.651Z,3.83
2022-08-20T18:57:57.415Z,3.47
2022-08-20T19:03:14.199Z,5.00
2022-08-20T19:08:21.124Z,3.50
2022-08-20T19:13:40.087Z,3.95
2022-08-20T19:18:48.170Z,4.43
2022-08-20T19:23:56.206Z,4.18
2022-08-20T19:29:10.832Z,4.60
2022-08-20T19:34:22.155Z,4.60
2022-08-20T19:44:36.609Z,6.55
2022-08-20T19:49:57.396Z,7.82
2022-08-20T19:55:03.893Z,6.83
2022-08-20T20:00:12.927Z,8.43
2022-08-20T20:05:17.192Z,8.15
2022-08-20T20:10:33.076Z,7.75
2022-08-20T20:15:37.970Z,8.63
2022-08-20T20:20:57.676Z,8.35
2022-08-20T20:26:04.479Z,8.88
2022-08-20T20:31:10.025Z,8.85
2022-08-20T20:36:18.284Z,9.02
2022-08-20T20:41:26.005Z,8.98
2022-08-20T20:46:30.989Z,8.75
2022-08-20T20:51:39.115Z,10.63
2022-08-20T20:56:43.577Z,11.77
2022-08-20T21:01:49.182Z,11.55
2022-08-20T21:06:56.834Z,14.10
2022-08-20T21:11:59.614Z,13.63
2022-08-20T21:17:05.848Z,14.20
2022-08-20T21:22:09.311Z,12.82
2022-08-20T21:27:13.034Z,13.43
2022-08-20T21:32:17.593Z,13.23
2022-08-20T21:37:20.364Z,13.82
2022-08-20T21:42:29.225Z,13.05
2022-08-20T21:47:32.600Z,14.50
2022-08-20T21:52:36.007Z,12.02
2022-08-20T21:57:39.045Z,14.15
2022-08-20T22:02:41.701Z,15.00
2022-08-20T22:07:44.859Z,15.23
2022-08-20T22:12:47.508Z,16.42
2022-08-20T22:17:50.133Z,16.73
2022-08-20T22:22:52.814Z,16.42
2022-08-20T22:27:55.512Z,16.40
2022-08-20T22:33:03.176Z,17.67
2022-08-20T22:38:06.109Z,18.30
2022-08-20T22:43:09.507Z,17.52
2022-08-20T22:48:16.485Z,17.13
2022-08-20T22:53:22.096Z,17.50
2022-08-20T22:58:31.159Z,17.50
2022-08-20T23:03:40.269Z,16.10
2022-08-20T23:08:45.157Z,17.77
2022-08-20T23:13:47.814Z,19.67
2022-08-20T23:18:50.676Z,18.63
2022-08-20T23:23:53.455Z,17.30
2022-08-20T23:28:56.263Z,17.65
2022-08-20T23:33:58.853Z,18.63
2022-08-20T23:39:01.628Z,20.85
2022-08-20T23:44:25.407Z,19.88
2022-08-20T23:49:31.737Z,22.55
2022-08-20T23:54:34.399Z,20.52
2022-08-20T23:59:37.148Z,19.63
